sensor_id;sensor_type;location;lat;lon;timestamp;pressure;altitude;pressure_sealevel;temperature;humidity
62103;BME280;48077;48.104;11.702;2023-07-29T00:01:03;95198.59;;;14.24;100.00
62103;BME280;48077;48.104;11.702;2023-07-29T00:07:38;95245.97;;;14.61;100.00
62103;BME280;48077;48.104;11.702;2023-07-29T00:10:02;95235.72;;;14.53;100.00
62103;BME280;48077;48.104;11.702;2023-07-29T00:12:26;95230.59;;;14.51;100.00
62103;BME280;48077;48.104;11.702;2023-07-29T00:14:49;95240.84;;;14.60;100.00
62103;BME280;48077;48.104;11.702;2023-07-29T00:17:13;95244.88;;;14.57;100.00
62103;BME280;48077;48.104;11.702;2023-07-29T00:19:36;95233.88;;;14.59;100.00
62103;BME280;48077;48.104;11.702;2023-07-29T00:21:59;95246.22;;;14.60;100.00
62103;BME280;48077;48.104;11.702;2023-07-29T00:24:23;95247.03;;;14.60;100.00
62103;BME280;48077;48.104;11.702;2023-07-29T00:26:46;95231.16;;;14.53;100.00
62103;BME280;48077;48.104;11.702;2023-07-29T00:29:09;95246.75;;;14.56;100.00
62103;BME280;48077;48.104;11.702;2023-07-29T00:31:33;95225.53;;;14.55;100.00
62103;BME280;48077;48.104;11.702;2023-07-29T00:33:56;95232.47;;;14.51;100.00
62103;BME280;48077;48.104;11.702;2023-07-29T00:36:21;95217.97;;;14.42;100.00
62103;BME280;48077;48.104;11.702;2023-07-29T00:38:45;95236.22;;;14.50;100.00
62103;BME280;48077;48.104;11.702;2023-07-29T00:41:08;95215.00;;;14.38;100.00
62103;BME280;48077;48.104;11.702;2023-07-29T00:43:36;95215.56;;;14.40;100.00
62103;BME280;48077;48.104;11.702;2023-07-29T00:45:59;95226.56;;;14.44;100.00
62103;BME280;48077;48.104;11.702;2023-07-29T00:48:25;95224.94;;;14.43;100.00
62103;BME280;48077;48.104;11.702;2023-07-29T00:50:49;95231.13;;;14.48;100.00
62103;BME280;48077;48.104;11.702;2023-07-29T00:53:12;95227.38;;;14.49;100.00
62103;BME280;48077;48.104;11.702;2023-07-29T00:55:36;95235.44;;;14.49;100.00
62103;BME280;48077;48.104;11.702;2023-07-29T00:58:00;95232.75;;;14.49;100.00
62103;BME280;48077;48.104;11.702;2023-07-29T01:00:24;95232.22;;;14.52;100.00
62103;BME280;48077;48.104;11.702;2023-07-29T01:02:47;95211.81;;;14.46;100.00
62103;BME280;48077;48.104;11.702;2023-07-29T01:05:14;95220.41;;;14.53;100.00
62103;BME280;48077;48.104;11.702;2023-07-29T01:13:19;95217.97;;;14.47;100.00
62103;BME280;48077;48.104;11.702;2023-07-29T01:15:52;95230.84;;;14.50;100.00
62103;BME280;48077;48.104;11.702;2023-07-29T01:18:26;95233.00;;;14.48;100.00
62103;BME280;48077;48.104;11.702;2023-07-29T01:21:00;95223.88;;;14.44;100.00
62103;BME280;48077;48.104;11.702;2023-07-29T01:23:30;95220.38;;;14.43;100.00
62103;BME280;48077;48.104;11.702;2023-07-29T01:25:53;95220.13;;;14.40;100.00
62103;BME280;48077;48.104;11.702;2023-07-29T01:28:17;95197.25;;;14.27;100.00
62103;BME280;48077;48.104;11.702;2023-07-29T01:30:43;95202.34;;;14.28;100.00
62103;BME280;48077;48.104;11.702;2023-07-29T01:33:18;95202.91;;;14.30;100.00
62103;BME280;48077;48.104;11.702;2023-07-29T01:36:02;95202.63;;;14.32;100.00
62103;BME280;48077;48.104;11.702;2023-07-29T01:38:32;95203.97;;;14.29;100.00
62103;BME280;48077;48.104;11.702;2023-07-29T01:40:58;95207.19;;;14.26;100.00
62103;BME280;48077;48.104;11.702;2023-07-29T01:43:24;95208.75;;;14.22;100.00
62103;BME280;48077;48.104;11.702;2023-07-29T01:45:49;95189.69;;;14.08;100.00
62103;BME280;48077;48.104;11.702;2023-07-29T01:48:12;95195.06;;;14.08;100.00
62103;BME280;48077;48.104;11.702;2023-07-29T01:50:36;95190.75;;;14.07;100.00
62103;BME280;48077;48.104;11.702;2023-07-29T01:52:59;95198.78;;;14.12;100.00
62103;BME280;48077;48.104;11.702;2023-07-29T01:55:23;95185.88;;;13.99;100.00
62103;BME280;48077;48.104;11.702;2023-07-29T01:57:46;95194.72;;;14.00;100.00
62103;BME280;48077;48.104;11.702;2023-07-29T02:00:10;95193.13;;;13.99;100.00
62103;BME280;48077;48.104;11.702;2023-07-29T02:02:33;95182.63;;;13.92;100.00
62103;BME280;48077;48.104;11.702;2023-07-29T02:04:57;95206.53;;;14.04;100.00
62103;BME280;48077;48.104;11.702;2023-07-29T02:07:20;95189.09;;;13.96;100.00
62103;BME280;48077;48.104;11.702;2023-07-29T02:09:43;95194.22;;;14.03;100.00
62103;BME280;48077;48.104;11.702;2023-07-29T02:12:07;95196.66;;;14.04;100.00
62103;BME280;48077;48.104;11.702;2023-07-29T02:14:30;95196.91;;;14.03;100.00
62103;BME280;48077;48.104;11.702;2023-07-29T02:16:54;95177.53;;;13.95;100.00
62103;BME280;48077;48.104;11.702;2023-07-29T02:19:17;95187.72;;;13.93;100.00
62103;BME280;48077;48.104;11.702;2023-07-29T02:21:41;95179.13;;;13.91;100.00
62103;BME280;48077;48.104;11.702;2023-07-29T02:24:04;95179.69;;;13.93;100.00
62103;BME280;48077;48.104;11.702;2023-07-29T02:26:27;95189.34;;;13.94;100.00
62103;BME280;48077;48.104;11.702;2023-07-29T02:28:51;95171.34;;;13.85;100.00
62103;BME280;48077;48.104;11.702;2023-07-29T02:31:25;95181.50;;;13.83;100.00
62103;BME280;48077;48.104;11.702;2023-07-29T02:33:48;95178.03;;;13.82;100.00
62103;BME280;48077;48.104;11.702;2023-07-29T02:36:13;95186.88;;;13.83;100.00
62103;BME280;48077;48.104;11.702;2023-07-29T02:38:36;95191.19;;;13.84;100.00
62103;BME280;48077;48.104;11.702;2023-07-29T02:41:00;95189.81;;;13.81;100.00
62103;BME280;48077;48.104;11.702;2023-07-29T02:43:23;95196.25;;;13.85;100.00
62103;BME280;48077;48.104;11.702;2023-07-29T02:45:47;95202.16;;;13.82;100.00
62103;BME280;48077;48.104;11.702;2023-07-29T02:48:10;95192.16;;;13.72;100.00
62103;BME280;48077;48.104;11.702;2023-07-29T02:50:34;95195.63;;;13.68;100.00
62103;BME280;48077;48.104;11.702;2023-07-29T02:52:57;95213.38;;;13.79;100.00
62103;BME280;48077;48.104;11.702;2023-07-29T02:55:21;95198.88;;;13.70;100.00
62103;BME280;48077;48.104;11.702;2023-07-29T02:57:44;95203.44;;;13.74;100.00
62103;BME280;48077;48.104;11.702;2023-07-29T03:00:08;95203.44;;;13.74;100.00
62103;BME280;48077;48.104;11.702;2023-07-29T03:02:31;95191.84;;;13.64;100.00
62103;BME280;48077;48.104;11.702;2023-07-29T03:04:55;95192.38;;;13.61;100.00
62103;BME280;48077;48.104;11.702;2023-07-29T03:07:18;95195.63;;;13.63;100.00
62103;BME280;48077;48.104;11.702;2023-07-29T03:09:42;95193.19;;;13.61;100.00
62103;BME280;48077;48.104;11.702;2023-07-29T03:12:07;95185.38;;;13.54;100.00
62103;BME280;48077;48.104;11.702;2023-07-29T03:14:31;95187.28;;;13.59;100.00
62103;BME280;48077;48.104;11.702;2023-07-29T03:16:54;95192.09;;;13.62;100.00
62103;BME280;48077;48.104;11.702;2023-07-29T03:19:18;95184.06;;;13.62;100.00
62103;BME280;48077;48.104;11.702;2023-07-29T03:21:41;95193.00;;;13.73;100.00
62103;BME280;48077;48.104;11.702;2023-07-29T03:24:04;95191.38;;;13.72;100.00
62103;BME280;48077;48.104;11.702;2023-07-29T03:26:28;95192.72;;;13.74;100.00
62103;BME280;48077;48.104;11.702;2023-07-29T03:28:51;95193.81;;;13.73;100.00
62103;BME280;48077;48.104;11.702;2023-07-29T03:31:14;95201.03;;;13.73;100.00
62103;BME280;48077;48.104;11.702;2023-07-29T03:33:38;95205.63;;;13.77;100.00
62103;BME280;48077;48.104;11.702;2023-07-29T03:36:01;95202.88;;;13.72;100.00
62103;BME280;48077;48.104;11.702;2023-07-29T03:38:25;95187.34;;;13.74;100.00
62103;BME280;48077;48.104;11.702;2023-07-29T03:40:48;95169.69;;;13.73;100.00
62103;BME280;48077;48.104;11.702;2023-07-29T03:43:12;95181.19;;;13.74;100.00
62103;BME280;48077;48.104;11.702;2023-07-29T03:45:36;95188.22;;;13.85;100.00
62103;BME280;48077;48.104;11.702;2023-07-29T03:47:59;95178.53;;;13.79;100.00
62103;BME280;48077;48.104;11.702;2023-07-29T03:50:23;95182.84;;;13.85;100.00
62103;BME280;48077;48.104;11.702;2023-07-29T03:52:47;95176.44;;;13.86;100.00
62103;BME280;48077;48.104;11.702;2023-07-29T03:55:10;95170.53;;;13.84;100.00
62103;BME280;48077;48.104;11.702;2023-07-29T03:57:34;95184.50;;;13.91;100.00
62103;BME280;48077;48.104;11.702;2023-07-29T03:59:57;95190.16;;;13.95;100.00
62103;BME280;48077;48.104;11.702;2023-07-29T04:02:20;95197.94;;;13.96;100.00
62103;BME280;48077;48.104;11.702;2023-07-29T04:04:44;95190.41;;;13.93;100.00
62103;BME280;48077;48.104;11.702;2023-07-29T04:07:10;95196.66;;;14.04;100.00
62103;BME280;48077;48.104;11.702;2023-07-29T04:09:33;95199.59;;;14.08;100.00
62103;BME280;48077;48.104;11.702;2023-07-29T04:11:57;95191.03;;;14.11;100.00
62103;BME280;48077;48.104;11.702;2023-07-29T04:14:20;95197.44;;;14.10;100.00
62103;BME280;48077;48.104;11.702;2023-07-29T04:16:43;95189.69;;;14.13;100.00
62103;BME280;48077;48.104;11.702;2023-07-29T04:19:08;95185.13;;;14.14;100.00
62103;BME280;48077;48.104;11.702;2023-07-29T04:21:31;95169.31;;;14.17;100.00
62103;BME280;48077;48.104;11.702;2023-07-29T04:23:55;95175.50;;;14.18;100.00
62103;BME280;48077;48.104;11.702;2023-07-29T04:26:18;95167.19;;;14.20;100.00
62103;BME280;48077;48.104;11.702;2023-07-29T04:28:42;95148.38;;;14.14;100.00
62103;BME280;48077;48.104;11.702;2023-07-29T04:31:06;95147.06;;;14.17;100.00
62103;BME280;48077;48.104;11.702;2023-07-29T04:33:29;95141.72;;;14.22;100.00
62103;BME280;48077;48.104;11.702;2023-07-29T04:35:53;95156.50;;;14.30;100.00
62103;BME280;48077;48.104;11.702;2023-07-29T04:38:16;95154.09;;;14.33;100.00
62103;BME280;48077;48.104;11.702;2023-07-29T04:40:42;95148.72;;;14.33;100.00
62103;BME280;48077;48.104;11.702;2023-07-29T04:43:05;95139.06;;;14.32;100.00
62103;BME280;48077;48.104;11.702;2023-07-29T04:45:29;95132.63;;;14.33;100.00
62103;BME280;48077;48.104;11.702;2023-07-29T04:47:53;95142.31;;;14.40;100.00
62103;BME280;48077;48.104;11.702;2023-07-29T04:50:16;95146.88;;;14.49;100.00
62103;BME280;48077;48.104;11.702;2023-07-29T04:52:39;95134.25;;;14.45;100.00
62103;BME280;48077;48.104;11.702;2023-07-29T04:55:03;95148.75;;;14.54;100.00
62103;BME280;48077;48.104;11.702;2023-07-29T04:57:26;95144.22;;;14.54;100.00
62103;BME280;48077;48.104;11.702;2023-07-29T04:59:50;95150.94;;;14.57;100.00
62103;BME280;48077;48.104;11.702;2023-07-29T05:02:13;95153.91;;;14.66;100.00
62103;BME280;48077;48.104;11.702;2023-07-29T05:04:36;95148.81;;;14.69;100.00
62103;BME280;48077;48.104;11.702;2023-07-29T05:07:00;95134.84;;;14.72;100.00
62103;BME280;48077;48.104;11.702;2023-07-29T05:09:23;95129.50;;;14.77;100.00
62103;BME280;48077;48.104;11.702;2023-07-29T05:11:47;95139.69;;;14.91;100.00
62103;BME280;48077;48.104;11.702;2023-07-29T05:14:11;95141.31;;;14.97;100.00
62103;BME280;48077;48.104;11.702;2023-07-29T05:16:34;95133.53;;;15.06;100.00
62103;BME280;48077;48.104;11.702;2023-07-29T05:18:57;95134.59;;;15.20;100.00
62103;BME280;48077;48.104;11.702;2023-07-29T05:21:21;95136.75;;;15.33;100.00
62103;BME280;48077;48.104;11.702;2023-07-29T05:23:44;95136.69;;;15.44;100.00
62103;BME280;48077;48.104;11.702;2023-07-29T05:26:07;95123.53;;;15.47;100.00
62103;BME280;48077;48.104;11.702;2023-07-29T05:28:31;95126.47;;;15.61;100.00
62103;BME280;48077;48.104;11.702;2023-07-29T05:30:54;95118.41;;;15.61;100.00
62103;BME280;48077;48.104;11.702;2023-07-29T05:33:17;95110.59;;;15.65;100.00
62103;BME280;48077;48.104;11.702;2023-07-29T05:35:41;95111.38;;;15.70;100.00
62103;BME280;48077;48.104;11.702;2023-07-29T05:38:04;95125.06;;;15.79;100.00
62103;BME280;48077;48.104;11.702;2023-07-29T05:40:29;95130.44;;;15.84;100.00
62103;BME280;48077;48.104;11.702;2023-07-29T05:42:53;95117.00;;;15.84;100.00
62103;BME280;48077;48.104;11.702;2023-07-29T05:45:16;95126.66;;;15.85;100.00
62103;BME280;48077;48.104;11.702;2023-07-29T05:47:40;95149.22;;;15.99;100.00
62103;BME280;48077;48.104;11.702;2023-07-29T05:50:04;95137.34;;;16.06;100.00
62103;BME280;48077;48.104;11.702;2023-07-29T05:52:27;95149.44;;;16.13;100.00
62103;BME280;48077;48.104;11.702;2023-07-29T05:54:51;95155.84;;;16.23;100.00
62103;BME280;48077;48.104;11.702;2023-07-29T05:57:16;95125.47;;;16.17;100.00
62103;BME280;48077;48.104;11.702;2023-07-29T05:59:40;95140.47;;;16.28;100.00
62103;BME280;48077;48.104;11.702;2023-07-29T06:02:03;95155.56;;;16.29;100.00
62103;BME280;48077;48.104;11.702;2023-07-29T06:04:27;95147.47;;;16.29;100.00
62103;BME280;48077;48.104;11.702;2023-07-29T06:06:50;95149.88;;;16.31;100.00
62103;BME280;48077;48.104;11.702;2023-07-29T06:09:13;95145.38;;;16.21;100.00
62103;BME280;48077;48.104;11.702;2023-07-29T06:11:37;95176.81;;;16.21;100.00
62103;BME280;48077;48.104;11.702;2023-07-29T06:14:00;95223.94;;;16.23;100.00
62103;BME280;48077;48.104;11.702;2023-07-29T06:16:23;95226.91;;;16.11;100.00
62103;BME280;48077;48.104;11.702;2023-07-29T06:18:47;95190.09;;;16.02;100.00
62103;BME280;48077;48.104;11.702;2023-07-29T06:21:10;95193.53;;;16.12;100.00
62103;BME280;48077;48.104;11.702;2023-07-29T06:23:39;95159.41;;;16.08;100.00
62103;BME280;48077;48.104;11.702;2023-07-29T06:26:06;95143.28;;;16.03;100.00
62103;BME280;48077;48.104;11.702;2023-07-29T06:28:30;95140.34;;;16.04;100.00
62103;BME280;48077;48.104;11.702;2023-07-29T06:30:53;95133.91;;;15.95;100.00
62103;BME280;48077;48.104;11.702;2023-07-29T06:33:16;95129.84;;;16.03;100.00
62103;BME280;48077;48.104;11.702;2023-07-29T06:35:43;95138.41;;;16.10;100.00
62103;BME280;48077;48.104;11.702;2023-07-29T06:38:06;95147.00;;;16.12;100.00
62103;BME280;48077;48.104;11.702;2023-07-29T06:40:30;95145.38;;;16.16;100.00
62103;BME280;48077;48.104;11.702;2023-07-29T06:42:53;95169.81;;;16.25;100.00
62103;BME280;48077;48.104;11.702;2023-07-29T06:45:16;95171.69;;;16.29;100.00
62103;BME280;48077;48.104;11.702;2023-07-29T06:47:40;95170.28;;;16.37;100.00
62103;BME280;48077;48.104;11.702;2023-07-29T06:50:03;95154.19;;;16.27;100.00
62103;BME280;48077;48.104;11.702;2023-07-29T06:52:27;95186.13;;;16.44;100.00
62103;BME280;48077;48.104;11.702;2023-07-29T06:54:50;95207.66;;;16.44;100.00
62103;BME280;48077;48.104;11.702;2023-07-29T06:57:13;95196.44;;;16.26;100.00
62103;BME280;48077;48.104;11.702;2023-07-29T06:59:37;95230.88;;;16.34;100.00
62103;BME280;48077;48.104;11.702;2023-07-29T07:02:00;95207.50;;;16.19;100.00
62103;BME280;48077;48.104;11.702;2023-07-29T07:04:25;95229.53;;;16.27;100.00
62103;BME280;48077;48.104;11.702;2023-07-29T07:06:48;95229.56;;;16.16;100.00
62103;BME280;48077;48.104;11.702;2023-07-29T07:09:11;95246.00;;;16.15;100.00
62103;BME280;48077;48.104;11.702;2023-07-29T07:11:35;95233.94;;;16.02;100.00
62103;BME280;48077;48.104;11.702;2023-07-29T07:13:58;95230.16;;;16.03;100.00
62103;BME280;48077;48.104;11.702;2023-07-29T07:16:22;95234.22;;;16.01;100.00
62103;BME280;48077;48.104;11.702;2023-07-29T07:18:45;95235.81;;;16.07;100.00
62103;BME280;48077;48.104;11.702;2023-07-29T07:21:08;95233.66;;;16.09;100.00
62103;BME280;48077;48.104;11.702;2023-07-29T07:23:32;95236.88;;;16.11;100.00
62103;BME280;48077;48.104;11.702;2023-07-29T07:25:55;95221.53;;;16.11;100.00
62103;BME280;48077;48.104;11.702;2023-07-29T07:28:18;95230.94;;;16.14;100.00
62103;BME280;48077;48.104;11.702;2023-07-29T07:30:42;95226.88;;;16.16;100.00
62103;BME280;48077;48.104;11.702;2023-07-29T07:33:05;95212.38;;;16.12;100.00
62103;BME280;48077;48.104;11.702;2023-07-29T07:35:29;95229.00;;;16.25;100.00
62103;BME280;48077;48.104;11.702;2023-07-29T07:37:52;95193.56;;;16.07;100.00
62103;BME280;48077;48.104;11.702;2023-07-29T07:40:16;95216.34;;;16.30;100.00
62103;BME280;48077;48.104;11.702;2023-07-29T07:42:41;95200.78;;;16.22;100.00
62103;BME280;48077;48.104;11.702;2023-07-29T07:45:05;95202.38;;;16.28;100.00
62103;BME280;48077;48.104;11.702;2023-07-29T07:47:28;95195.88;;;16.39;100.00
62103;BME280;48077;48.104;11.702;2023-07-29T07:49:52;95193.41;;;16.43;100.00
62103;BME280;48077;48.104;11.702;2023-07-29T07:52:15;95173.25;;;16.41;100.00
62103;BME280;48077;48.104;11.702;2023-07-29T07:54:39;95170.75;;;16.54;100.00
62103;BME280;48077;48.104;11.702;2023-07-29T07:57:02;95154.84;;;16.58;100.00
62103;BME280;48077;48.104;11.702;2023-07-29T07:59:25;95159.94;;;16.65;100.00
62103;BME280;48077;48.104;11.702;2023-07-29T08:01:49;95166.91;;;16.66;100.00
62103;BME280;48077;48.104;11.702;2023-07-29T08:04:12;95158.88;;;16.61;100.00
62103;BME280;48077;48.104;11.702;2023-07-29T08:06:35;95163.63;;;16.74;100.00
62103;BME280;48077;48.104;11.702;2023-07-29T08:08:59;95159.09;;;16.69;100.00
62103;BME280;48077;48.104;11.702;2023-07-29T08:11:22;95170.88;;;16.84;100.00
62103;BME280;48077;48.104;11.702;2023-07-29T08:13:46;95141.03;;;16.70;100.00
62103;BME280;48077;48.104;11.702;2023-07-29T08:16:09;95164.91;;;16.92;100.00
62103;BME280;48077;48.104;11.702;2023-07-29T08:18:33;95167.28;;;16.98;100.00
62103;BME280;48077;48.104;11.702;2023-07-29T08:21:00;95156.75;;;17.02;100.00
62103;BME280;48077;48.104;11.702;2023-07-29T08:23:26;95170.31;;;17.21;100.00
62103;BME280;48077;48.104;11.702;2023-07-29T08:25:54;95158.63;;;17.31;100.00
62103;BME280;48077;48.104;11.702;2023-07-29T08:28:19;95173.31;;;17.49;100.00
62103;BME280;48077;48.104;11.702;2023-07-29T08:30:43;95154.69;;;17.52;100.00
62103;BME280;48077;48.104;11.702;2023-07-29T08:33:06;95170.44;;;17.69;100.00
62103;BME280;48077;48.104;11.702;2023-07-29T08:35:29;95176.78;;;17.78;100.00
62103;BME280;48077;48.104;11.702;2023-07-29T08:37:53;95172.13;;;17.89;100.00
62103;BME280;48077;48.104;11.702;2023-07-29T08:40:16;95165.56;;;17.95;100.00
62103;BME280;48077;48.104;11.702;2023-07-29T08:42:40;95170.56;;;18.07;100.00
62103;BME280;48077;48.104;11.702;2023-07-29T08:45:07;95180.75;;;18.15;100.00
62103;BME280;48077;48.104;11.702;2023-07-29T08:47:34;95161.88;;;18.10;100.00
62103;BME280;48077;48.104;11.702;2023-07-29T08:49:59;95156.50;;;18.10;100.00
62103;BME280;48077;48.104;11.702;2023-07-29T08:52:24;95169.66;;;18.17;100.00
62103;BME280;48077;48.104;11.702;2023-07-29T08:54:48;95171.53;;;18.16;100.00
62103;BME280;48077;48.104;11.702;2023-07-29T08:57:11;95173.66;;;18.19;100.00
62103;BME280;48077;48.104;11.702;2023-07-29T08:59:36;95153.75;;;18.15;100.00
62103;BME280;48077;48.104;11.702;2023-07-29T09:02:01;95157.63;;;18.28;100.00
62103;BME280;48077;48.104;11.702;2023-07-29T09:04:24;95170.94;;;18.44;100.00
62103;BME280;48077;48.104;11.702;2023-07-29T09:06:50;95161.91;;;18.53;100.00
62103;BME280;48077;48.104;11.702;2023-07-29T09:09:13;95146.81;;;18.52;100.00
62103;BME280;48077;48.104;11.702;2023-07-29T09:11:37;95160.31;;;18.71;100.00
62103;BME280;48077;48.104;11.702;2023-07-29T09:14:00;95162.41;;;18.74;100.00
62103;BME280;48077;48.104;11.702;2023-07-29T09:16:24;95160.59;;;18.70;100.00
62103;BME280;48077;48.104;11.702;2023-07-29T09:18:48;95171.78;;;18.82;100.00
62103;BME280;48077;48.104;11.702;2023-07-29T09:21:15;95169.31;;;18.86;100.00
62103;BME280;48077;48.104;11.702;2023-07-29T09:23:40;95182.31;;;19.03;100.00
62103;BME280;48077;48.104;11.702;2023-07-29T09:26:04;95178.84;;;19.16;100.00
62103;BME280;48077;48.104;11.702;2023-07-29T09:28:33;95171.53;;;19.35;100.00
62103;BME280;48077;48.104;11.702;2023-07-29T09:30:56;95170.75;;;19.49;100.00
62103;BME280;48077;48.104;11.702;2023-07-29T09:33:20;95174.94;;;19.74;100.00
62103;BME280;48077;48.104;11.702;2023-07-29T09:35:44;95173.75;;;19.94;100.00
62103;BME280;48077;48.104;11.702;2023-07-29T09:38:07;95167.03;;;20.19;100.00
62103;BME280;48077;48.104;11.702;2023-07-29T09:40:35;95176.56;;;20.44;100.00
62103;BME280;48077;48.104;11.702;2023-07-29T09:42:59;95166.69;;;20.62;100.00
62103;BME280;48077;48.104;11.702;2023-07-29T09:45:24;95188.25;;;20.81;100.00
62103;BME280;48077;48.104;11.702;2023-07-29T09:47:48;95186.22;;;20.87;100.00
62103;BME280;48077;48.104;11.702;2023-07-29T09:50:12;95173.41;;;20.78;100.00
62103;BME280;48077;48.104;11.702;2023-07-29T09:52:35;95173.09;;;20.80;100.00
62103;BME280;48077;48.104;11.702;2023-07-29T09:54:59;95164.75;;;20.90;98.89
62103;BME280;48077;48.104;11.702;2023-07-29T09:57:22;95173.88;;;21.17;99.81
62103;BME280;48077;48.104;11.702;2023-07-29T09:59:55;95162.53;;;21.37;99.36
62103;BME280;48077;48.104;11.702;2023-07-29T10:02:20;95137.75;;;21.53;100.00
62103;BME280;48077;48.104;11.702;2023-07-29T10:04:45;95144.84;;;21.62;100.00
62103;BME280;48077;48.104;11.702;2023-07-29T10:07:12;95157.78;;;21.66;93.06
62103;BME280;48077;48.104;11.702;2023-07-29T10:09:38;95157.63;;;21.71;97.13
62103;BME280;48077;48.104;11.702;2023-07-29T10:12:03;95143.88;;;21.58;98.88
62103;BME280;48077;48.104;11.702;2023-07-29T10:14:30;95151.22;;;21.67;99.29
62103;BME280;48077;48.104;11.702;2023-07-29T10:16:54;95147.06;;;21.60;97.05
62103;BME280;48077;48.104;11.702;2023-07-29T10:19:19;95149.00;;;21.69;94.93
62103;BME280;48077;48.104;11.702;2023-07-29T10:21:44;95142.06;;;21.85;92.10
62103;BME280;48077;48.104;11.702;2023-07-29T10:24:14;95143.91;;;22.07;90.87
62103;BME280;48077;48.104;11.702;2023-07-29T10:26:40;95133.38;;;22.14;89.47
62103;BME280;48077;48.104;11.702;2023-07-29T10:29:07;95139.31;;;22.16;89.03
62103;BME280;48077;48.104;11.702;2023-07-29T10:31:32;95137.41;;;22.17;92.23
62103;BME280;48077;48.104;11.702;2023-07-29T10:33:56;95136.56;;;22.08;94.83
62103;BME280;48077;48.104;11.702;2023-07-29T10:36:19;95139.69;;;22.32;93.85
62103;BME280;48077;48.104;11.702;2023-07-29T10:38:45;95112.56;;;22.50;91.28
62103;BME280;48077;48.104;11.702;2023-07-29T10:41:09;95119.78;;;22.80;85.95
62103;BME280;48077;48.104;11.702;2023-07-29T10:43:34;95116.25;;;22.97;84.64
62103;BME280;48077;48.104;11.702;2023-07-29T10:46:19;95098.53;;;23.17;83.23
62103;BME280;48077;48.104;11.702;2023-07-29T10:53:55;95124.84;;;23.52;73.73
62103;BME280;48077;48.104;11.702;2023-07-29T10:56:33;95113.19;;;23.42;75.17
62103;BME280;48077;48.104;11.702;2023-07-29T11:01:41;95118.13;;;23.58;71.81
62103;BME280;48077;48.104;11.702;2023-07-29T11:07:22;95105.09;;;23.72;73.63
62103;BME280;48077;48.104;11.702;2023-07-29T11:12:38;95100.00;;;23.79;70.84
62103;BME280;48077;48.104;11.702;2023-07-29T11:15:04;95097.72;;;24.20;70.08
62103;BME280;48077;48.104;11.702;2023-07-29T11:17:34;95085.84;;;24.45;66.82
62103;BME280;48077;48.104;11.702;2023-07-29T11:20:00;95078.16;;;24.69;66.27
62103;BME280;48077;48.104;11.702;2023-07-29T11:22:25;95089.75;;;24.87;66.21
62103;BME280;48077;48.104;11.702;2023-07-29T11:24:48;95096.84;;;24.79;64.89
62103;BME280;48077;48.104;11.702;2023-07-29T11:27:12;95100.03;;;24.81;66.59
62103;BME280;48077;48.104;11.702;2023-07-29T11:29:35;95090.88;;;24.64;66.41
62103;BME280;48077;48.104;11.702;2023-07-29T11:31:58;95089.16;;;25.14;64.83
62103;BME280;48077;48.104;11.702;2023-07-29T11:34:34;95094.28;;;24.61;63.48
62103;BME280;48077;48.104;11.702;2023-07-29T11:36:58;95101.22;;;24.20;64.39
62103;BME280;48077;48.104;11.702;2023-07-29T11:39:21;95104.00;;;23.73;65.81
62103;BME280;48077;48.104;11.702;2023-07-29T11:41:45;95109.72;;;23.16;65.79
62103;BME280;48077;48.104;11.702;2023-07-29T11:44:17;95133.22;;;22.94;66.58
62103;BME280;48077;48.104;11.702;2023-07-29T11:46:40;95133.25;;;23.03;66.77
62103;BME280;48077;48.104;11.702;2023-07-29T11:49:03;95126.13;;;23.63;64.25
62103;BME280;48077;48.104;11.702;2023-07-29T11:51:28;95120.38;;;24.03;62.07
62103;BME280;48077;48.104;11.702;2023-07-29T11:53:51;95121.31;;;24.37;62.96
62103;BME280;48077;48.104;11.702;2023-07-29T11:56:15;95131.66;;;24.61;60.49
62103;BME280;48077;48.104;11.702;2023-07-29T11:58:39;95112.75;;;24.56;58.45
62103;BME280;48077;48.104;11.702;2023-07-29T12:01:03;95125.34;;;24.90;58.53
62103;BME280;48077;48.104;11.702;2023-07-29T12:03:27;95101.38;;;25.17;57.75
62103;BME280;48077;48.104;11.702;2023-07-29T12:05:50;95112.75;;;25.52;57.00
62103;BME280;48077;48.104;11.702;2023-07-29T12:08:14;95101.19;;;25.68;56.50
62103;BME280;48077;48.104;11.702;2023-07-29T12:10:37;95105.00;;;26.00;56.19
62103;BME280;48077;48.104;11.702;2023-07-29T12:13:02;95097.16;;;26.23;54.71
62103;BME280;48077;48.104;11.702;2023-07-29T12:15:26;95094.84;;;26.50;54.25
62103;BME280;48077;48.104;11.702;2023-07-29T12:17:53;95079.75;;;26.80;57.41
62103;BME280;48077;48.104;11.702;2023-07-29T12:20:20;95079.97;;;26.88;52.73
62103;BME280;48077;48.104;11.702;2023-07-29T12:22:43;95085.84;;;27.02;52.02
62103;BME280;48077;48.104;11.702;2023-07-29T12:25:07;95077.50;;;27.11;51.49
62103;BME280;48077;48.104;11.702;2023-07-29T12:27:31;95079.34;;;27.35;51.14
62103;BME280;48077;48.104;11.702;2023-07-29T12:29:58;95072.66;;;27.64;53.98
62103;BME280;48077;48.104;11.702;2023-07-29T12:32:26;95055.31;;;27.88;53.78
62103;BME280;48077;48.104;11.702;2023-07-29T12:34:49;95069.78;;;28.04;50.54
62103;BME280;48077;48.104;11.702;2023-07-29T12:37:13;95070.38;;;28.30;52.00
62103;BME280;48077;48.104;11.702;2023-07-29T12:39:40;95076.00;;;28.53;51.58
62103;BME280;48077;48.104;11.702;2023-07-29T12:42:07;95061.56;;;27.89;51.85
62103;BME280;48077;48.104;11.702;2023-07-29T12:44:32;95064.59;;;27.23;52.61
62103;BME280;48077;48.104;11.702;2023-07-29T12:46:56;95060.53;;;26.64;52.36
62103;BME280;48077;48.104;11.702;2023-07-29T12:49:19;95055.66;;;26.33;55.38
62103;BME280;48077;48.104;11.702;2023-07-29T12:51:43;95046.47;;;25.89;56.33